Time;durP1;ratioP1;P1;durP2;ratioP2;P2;SDS_P1;SDS_P2;PMS_P1;PMS_P2;Temp;Humidity;BMP_temperature;BMP_pressure;BME280_temperature;BME280_humidity;BME280_pressure;Samples;Min_cycle;Max_cycle;Signal;HPM_P1;HPM_P2
2023/06/06 00:00:24;;;;;;;6.50;3.38;;;;;;;;;;5056817;28;20111;-27
2023/06/06 00:02:51;;;;;;;3.78;3.20;;;;;;;;;;5056670;28;20073;-31
2023/06/06 00:05:21;;;;;;;3.65;3.10;;;;;;;;;;5056717;28;20020;-30
2023/06/06 00:07:47;;;;;;;4.95;3.50;;;;;;;;;;5056944;28;20021;-31
2023/06/06 00:10:16;;;;;;;4.80;3.40;;;;;;;;;;5056659;28;20028;-30
2023/06/06 00:12:52;;;;;;;5.20;2.53;;;;;;;;;;5056489;28;20029;-29
2023/06/06 00:15:19;;;;;;;11.07;3.33;;;;;;;;;;5056920;28;20099;-29
2023/06/06 00:17:48;;;;;;;8.75;3.47;;;;;;;;;;5056443;28;20025;-27
2023/06/06 00:20:15;;;;;;;5.53;4.00;;;;;;;;;;5055919;28;20016;-30
2023/06/06 00:22:41;;;;;;;11.00;4.63;;;;;;;;;;5056341;28;20456;-30
2023/06/06 00:25:08;;;;;;;3.38;3.08;;;;;;;;;;5056414;28;20417;-28
2023/06/06 00:27:35;;;;;;;4.82;3.78;;;;;;;;;;5056323;28;20104;-29
2023/06/06 00:30:01;;;;;;;5.40;3.25;;;;;;;;;;5056510;28;20331;-29
2023/06/06 00:32:27;;;;;;;3.50;3.20;;;;;;;;;;5056156;28;20029;-28
2023/06/06 00:34:55;;;;;;;4.30;3.40;;;;;;;;;;5055131;28;20033;-31
2023/06/06 00:37:21;;;;;;;3.58;2.95;;;;;;;;;;5056186;28;20329;-31
2023/06/06 00:39:47;;;;;;;4.40;3.75;;;;;;;;;;5055180;28;20393;-27
2023/06/06 00:42:13;;;;;;;6.50;4.07;;;;;;;;;;5056250;28;20052;-31
2023/06/06 00:44:40;;;;;;;5.90;3.28;;;;;;;;;;5056269;28;20032;-30
2023/06/06 00:47:07;;;;;;;10.15;4.35;;;;;;;;;;5056265;28;20359;-28
2023/06/06 00:49:34;;;;;;;5.57;3.38;;;;;;;;;;5055860;28;20040;-28
2023/06/06 00:52:00;;;;;;;3.90;3.45;;;;;;;;;;5056059;28;20036;-29
2023/06/06 00:54:27;;;;;;;6.68;4.72;;;;;;;;;;5055683;28;20025;-30
2023/06/06 00:56:54;;;;;;;5.28;2.90;;;;;;;;;;5056036;28;20384;-33
2023/06/06 00:59:20;;;;;;;3.70;2.92;;;;;;;;;;5055981;28;20347;-28
2023/06/06 01:01:48;;;;;;;5.45;3.45;;;;;;;;;;5055865;28;20027;-32
2023/06/06 01:04:15;;;;;;;6.50;3.53;;;;;;;;;;5055503;28;20045;-27
2023/06/06 01:06:42;;;;;;;4.55;3.03;;;;;;;;;;5055672;28;20075;-30
2023/06/06 01:09:12;;;;;;;4.32;2.80;;;;;;;;;;5055770;28;20035;-29
2023/06/06 01:11:57;;;;;;;5.50;3.63;;;;;;;;;;5055556;28;20021;-27
2023/06/06 01:14:38;;;;;;;6.13;3.35;;;;;;;;;;5055363;28;20102;-31
2023/06/06 01:17:07;;;;;;;5.47;3.13;;;;;;;;;;5055418;28;20028;-30
2023/06/06 01:19:34;;;;;;;4.18;3.28;;;;;;;;;;5055260;28;20455;-30
2023/06/06 01:22:00;;;;;;;5.90;3.20;;;;;;;;;;5055144;28;20117;-32
2023/06/06 01:24:29;;;;;;;3.55;3.13;;;;;;;;;;5055246;28;20048;-29
2023/06/06 01:26:56;;;;;;;4.03;2.92;;;;;;;;;;5055456;28;20393;-31
2023/06/06 01:29:22;;;;;;;4.18;3.00;;;;;;;;;;5055408;28;20031;-29
2023/06/06 01:31:53;;;;;;;3.85;3.55;;;;;;;;;;5054167;28;20029;-31
2023/06/06 01:34:19;;;;;;;;;;;;;;;;;;5054918;28;20139;-29
2023/06/06 01:36:51;;;;;;;5.95;3.60;;;;;;;;;;5055040;28;19947;-31
2023/06/06 01:39:19;;;;;;;3.75;3.45;;;;;;;;;;5054972;28;20365;-29
2023/06/06 01:41:46;;;;;;;5.03;3.88;;;;;;;;;;5055446;28;20017;-32
2023/06/06 01:44:13;;;;;;;4.85;3.50;;;;;;;;;;5055198;28;20053;-30
2023/06/06 01:46:40;;;;;;;5.43;3.03;;;;;;;;;;5054849;28;20090;-31
2023/06/06 01:49:07;;;;;;;5.07;3.60;;;;;;;;;;5054867;28;20028;-30
2023/06/06 01:51:33;;;;;;;4.07;3.78;;;;;;;;;;5054804;28;20029;-28
2023/06/06 01:53:59;;;;;;;4.03;3.45;;;;;;;;;;5054641;28;20447;-32
2023/06/06 01:56:26;;;;;;;4.20;3.25;;;;;;;;;;5054708;28;20118;-30
2023/06/06 01:58:54;;;;;;;3.53;3.22;;;;;;;;;;5054694;28;20025;-29
2023/06/06 02:01:21;;;;;;;8.65;4.40;;;;;;;;;;5054676;28;20052;-27
2023/06/06 02:03:47;;;;;;;4.22;3.55;;;;;;;;;;5054411;28;20053;-29
2023/06/06 02:06:13;;;;;;;4.25;3.50;;;;;;;;;;5053642;28;20440;-29
2023/06/06 02:08:39;;;;;;;5.80;3.17;;;;;;;;;;5054836;28;20025;-30
2023/06/06 02:11:05;;;;;;;3.72;3.30;;;;;;;;;;5054551;28;20483;-31
2023/06/06 02:13:31;;;;;;;3.45;3.15;;;;;;;;;;5054408;28;20083;-32
2023/06/06 02:15:57;;;;;;;3.25;2.90;;;;;;;;;;5054762;28;20045;-27
2023/06/06 02:18:23;;;;;;;3.40;3.10;;;;;;;;;;5054409;28;20051;-32
2023/06/06 02:20:49;;;;;;;3.92;3.55;;;;;;;;;;5054732;28;20091;-29
2023/06/06 02:23:16;;;;;;;3.03;2.78;;;;;;;;;;5054577;28;20428;-31
2023/06/06 02:25:42;;;;;;;5.93;3.65;;;;;;;;;;5054712;28;20028;-29
2023/06/06 02:28:09;;;;;;;3.00;2.80;;;;;;;;;;5054465;28;20036;-31
2023/06/06 02:30:35;;;;;;;7.63;3.65;;;;;;;;;;5053376;28;20451;-31
2023/06/06 02:33:01;;;;;;;4.90;2.90;;;;;;;;;;5054200;28;20029;-29
2023/06/06 02:35:27;;;;;;;5.57;3.33;;;;;;;;;;5053397;28;20033;-30
2023/06/06 02:37:53;;;;;;;5.43;3.28;;;;;;;;;;5053374;28;20037;-27
2023/06/06 02:40:19;;;;;;;3.22;2.90;;;;;;;;;;5054591;28;20021;-30
2023/06/06 02:42:45;;;;;;;4.97;2.72;;;;;;;;;;5056394;28;20064;-30
2023/06/06 02:45:11;;;;;;;3.00;2.70;;;;;;;;;;5058301;28;20104;-28
2023/06/06 02:47:38;;;;;;;5.03;4.13;;;;;;;;;;5058205;28;20074;-30
2023/06/06 02:50:04;;;;;;;4.38;3.42;;;;;;;;;;5058201;28;20466;-31
2023/06/06 02:52:35;;;;;;;4.60;2.78;;;;;;;;;;5058061;28;20402;-31
2023/06/06 02:55:02;;;;;;;3.33;3.03;;;;;;;;;;5058100;28;20031;-27
2023/06/06 02:57:28;;;;;;;4.03;3.63;;;;;;;;;;5058054;28;20060;-31
2023/06/06 02:59:55;;;;;;;3.75;3.45;;;;;;;;;;5058290;28;20025;-27
2023/06/06 03:02:21;;;;;;;4.18;3.00;;;;;;;;;;5057908;28;20021;-28
2023/06/06 03:04:47;;;;;;;3.38;3.10;;;;;;;;;;5058197;28;20044;-32
2023/06/06 03:07:13;;;;;;;3.20;2.97;;;;;;;;;;5057882;28;20035;-27
2023/06/06 03:09:40;;;;;;;3.05;2.75;;;;;;;;;;5058102;28;20029;-33
2023/06/06 03:12:06;;;;;;;2.90;2.70;;;;;;;;;;5057956;28;20036;-32
2023/06/06 03:14:32;;;;;;;4.00;3.50;;;;;;;;;;5057629;28;20128;-29
2023/06/06 03:16:58;;;;;;;3.90;3.60;;;;;;;;;;5057664;28;20025;-30
2023/06/06 03:19:25;;;;;;;3.03;2.80;;;;;;;;;;5057622;28;20025;-29
2023/06/06 03:21:51;;;;;;;5.45;3.20;;;;;;;;;;5057788;28;20025;-30
2023/06/06 03:24:19;;;;;;;3.55;3.25;;;;;;;;;;5057512;28;20514;-28
2023/06/06 03:26:46;;;;;;;3.25;2.83;;;;;;;;;;5057499;28;20060;-28
2023/06/06 03:29:12;;;;;;;2.88;2.67;;;;;;;;;;5057460;28;20043;-33
2023/06/06 03:31:41;;;;;;;2.47;2.38;;;;;;;;;;5057684;28;20133;-29
2023/06/06 03:34:07;;;;;;;3.35;3.10;;;;;;;;;;5057166;28;20032;-30
2023/06/06 03:36:33;;;;;;;5.88;3.28;;;;;;;;;;5057323;28;20107;-28
2023/06/06 03:39:00;;;;;;;3.40;3.10;;;;;;;;;;5057255;28;20022;-30
2023/06/06 03:41:26;;;;;;;4.57;2.97;;;;;;;;;;5057454;28;20104;-30
2023/06/06 03:43:53;;;;;;;7.40;3.40;;;;;;;;;;5057116;28;20037;-29
2023/06/06 03:46:19;;;;;;;4.55;3.22;;;;;;;;;;5057105;28;20413;-32
2023/06/06 03:48:45;;;;;;;2.95;2.65;;;;;;;;;;5056204;28;20032;-30
2023/06/06 03:51:11;;;;;;;3.20;2.97;;;;;;;;;;5055998;28;20040;-30
2023/06/06 03:53:37;;;;;;;4.93;3.03;;;;;;;;;;5055843;28;20067;-30
2023/06/06 03:56:06;;;;;;;3.17;2.97;;;;;;;;;;5056818;28;20025;-31
2023/06/06 03:58:33;;;;;;;3.50;2.80;;;;;;;;;;5056780;28;20040;-30
2023/06/06 04:00:59;;;;;;;2.92;2.72;;;;;;;;;;5057100;28;20031;-27
2023/06/06 04:03:26;;;;;;;4.63;3.35;;;;;;;;;;5056574;28;20040;-31
2023/06/06 04:05:53;;;;;;;3.13;2.92;;;;;;;;;;5056808;28;20025;-27
2023/06/06 04:08:20;;;;;;;2.38;2.28;;;;;;;;;;5056928;28;20029;-30
2023/06/06 04:10:46;;;;;;;2.67;2.47;;;;;;;;;;5056618;28;20380;-32
2023/06/06 04:13:12;;;;;;;3.50;3.20;;;;;;;;;;5056348;28;20064;-29
2023/06/06 04:15:38;;;;;;;5.10;2.58;;;;;;;;;;5056454;28;20017;-31
2023/06/06 04:18:05;;;;;;;3.35;2.95;;;;;;;;;;5056620;28;20036;-30
2023/06/06 04:20:32;;;;;;;3.10;2.90;;;;;;;;;;5056130;28;20025;-27
2023/06/06 04:23:00;;;;;;;3.30;3.00;;;;;;;;;;5056151;28;20021;-32
2023/06/06 04:25:26;;;;;;;4.18;2.55;;;;;;;;;;5056270;28;20033;-27
2023/06/06 04:27:52;;;;;;;3.17;2.67;;;;;;;;;;5056190;28;20220;-30
2023/06/06 04:30:24;;;;;;;2.92;2.72;;;;;;;;;;5056122;28;20087;-33
2023/06/06 04:32:52;;;;;;;4.60;3.35;;;;;;;;;;5056316;28;20447;-31
2023/06/06 04:35:18;;;;;;;4.90;2.95;;;;;;;;;;5056285;28;20396;-30
2023/06/06 04:37:47;;;;;;;7.97;2.95;;;;;;;;;;5055956;28;20056;-31
2023/06/06 04:40:14;;;;;;;5.40;3.58;;;;;;;;;;5055918;28;20029;-29
2023/06/06 04:42:40;;;;;;;4.03;2.60;;;;;;;;;;5056019;28;20076;-29
2023/06/06 04:45:07;;;;;;;3.67;2.88;;;;;;;;;;5056107;28;20100;-30
2023/06/06 04:47:35;;;;;;;4.85;3.00;;;;;;;;;;5055763;28;20039;-31
2023/06/06 04:50:02;;;;;;;4.70;3.13;;;;;;;;;;5055709;28;20044;-27
2023/06/06 04:52:28;;;;;;;3.33;2.70;;;;;;;;;;5055926;28;20037;-29
2023/06/06 04:54:55;;;;;;;4.43;2.65;;;;;;;;;;5055451;28;20444;-31
2023/06/06 04:57:23;;;;;;;3.75;2.95;;;;;;;;;;5054672;28;20056;-27
2023/06/06 04:59:52;;;;;;;6.63;2.83;;;;;;;;;;5055526;28;20016;-30
2023/06/06 05:02:22;;;;;;;4.15;2.80;;;;;;;;;;5055590;28;20051;-31
2023/06/06 05:04:49;;;;;;;8.25;3.25;;;;;;;;;;5055686;28;20052;-37
2023/06/06 05:07:15;;;;;;;4.00;2.70;;;;;;;;;;5055342;28;20024;-31
2023/06/06 05:09:41;;;;;;;6.75;3.30;;;;;;;;;;5055584;28;20411;-29
2023/06/06 05:12:07;;;;;;;3.05;2.83;;;;;;;;;;5054276;28;20364;-31
2023/06/06 05:14:33;;;;;;;5.80;3.75;;;;;;;;;;5055160;28;20032;-29
2023/06/06 05:17:00;;;;;;;2.95;2.60;;;;;;;;;;5055160;28;20017;-32
2023/06/06 05:19:26;;;;;;;3.58;3.03;;;;;;;;;;5055217;28;20025;-30
2023/06/06 05:21:52;;;;;;;4.50;2.60;;;;;;;;;;5055082;28;20013;-32
2023/06/06 05:24:18;;;;;;;3.13;2.92;;;;;;;;;;5055118;28;20135;-27
2023/06/06 05:26:45;;;;;;;3.47;3.10;;;;;;;;;;5055223;28;20032;-30
2023/06/06 05:29:11;;;;;;;3.50;3.13;;;;;;;;;;5055342;28;20133;-31
2023/06/06 05:31:37;;;;;;;3.80;3.05;;;;;;;;;;5055247;28;20075;-30
2023/06/06 05:34:03;;;;;;;4.28;2.80;;;;;;;;;;5055095;28;20029;-28
2023/06/06 05:36:29;;;;;;;5.68;3.15;;;;;;;;;;5055168;28;20100;-31
2023/06/06 05:38:56;;;;;;;10.73;3.33;;;;;;;;;;5054860;28;20032;-28
2023/06/06 05:41:22;;;;;;;5.75;2.50;;;;;;;;;;5055379;28;20344;-30
2023/06/06 05:43:49;;;;;;;5.10;3.60;;;;;;;;;;5053812;28;20021;-27
2023/06/06 05:46:15;;;;;;;4.50;3.10;;;;;;;;;;5056009;28;20017;-32
2023/06/06 05:48:41;;;;;;;5.07;2.58;;;;;;;;;;5054715;28;20033;-28
2023/06/06 05:51:08;;;;;;;8.85;2.75;;;;;;;;;;5054841;28;20025;-30
2023/06/06 05:53:34;;;;;;;5.47;3.08;;;;;;;;;;5053480;28;20379;-30
2023/06/06 05:56:00;;;;;;;3.25;2.95;;;;;;;;;;5054627;28;20151;-30
2023/06/06 05:58:27;;;;;;;9.95;2.80;;;;;;;;;;5054926;28;20048;-30
2023/06/06 06:00:53;;;;;;;8.15;3.25;;;;;;;;;;5054388;28;20062;-27
2023/06/06 06:03:21;;;;;;;6.70;2.78;;;;;;;;;;5054249;28;20049;-31
2023/06/06 06:05:47;;;;;;;9.85;2.50;;;;;;;;;;5054596;28;20341;-27
2023/06/06 06:08:14;;;;;;;10.05;3.55;;;;;;;;;;5054332;28;20368;-30
2023/06/06 06:10:40;;;;;;;5.80;3.30;;;;;;;;;;5054361;28;20032;-28
2023/06/06 06:13:06;;;;;;;8.52;3.15;;;;;;;;;;5054304;28;20138;-27
2023/06/06 06:15:33;;;;;;;7.25;3.30;;;;;;;;;;5054675;28;20032;-31
2023/06/06 06:18:03;;;;;;;6.03;3.03;;;;;;;;;;5053867;28;20102;-30
2023/06/06 06:20:29;;;;;;;3.78;3.00;;;;;;;;;;5054391;28;20214;-30
2023/06/06 06:22:55;;;;;;;10.65;4.15;;;;;;;;;;5054245;28;20036;-29
2023/06/06 06:25:22;;;;;;;6.63;3.28;;;;;;;;;;5054302;28;20025;-28
2023/06/06 06:27:48;;;;;;;10.38;3.20;;;;;;;;;;5053305;28;20049;-27
2023/06/06 06:30:15;;;;;;;8.57;3.28;;;;;;;;;;5054497;28;20031;-32
2023/06/06 06:32:42;;;;;;;8.30;3.22;;;;;;;;;;5053171;28;20021;-27
2023/06/06 06:35:09;;;;;;;4.80;2.20;;;;;;;;;;5054389;28;20335;-30
2023/06/06 06:37:39;;;;;;;5.18;2.75;;;;;;;;;;5054159;28;20025;-30
2023/06/06 06:40:08;;;;;;;9.40;3.53;;;;;;;;;;5054089;28;20032;-27
2023/06/06 06:42:34;;;;;;;4.10;2.60;;;;;;;;;;5053993;28;20329;-31
2023/06/06 06:45:00;;;;;;;6.68;3.20;;;;;;;;;;5053950;28;20098;-31
2023/06/06 06:47:27;;;;;;;5.47;3.28;;;;;;;;;;5054129;28;20021;-29
2023/06/06 06:49:53;;;;;;;3.80;2.85;;;;;;;;;;5053951;28;20186;-32
2023/06/06 06:52:19;;;;;;;5.13;2.97;;;;;;;;;;5054015;28;20033;-30
2023/06/06 06:54:58;;;;;;;5.63;4.13;;;;;;;;;;5054166;28;20024;-36
2023/06/06 06:57:29;;;;;;;4.88;3.15;;;;;;;;;;5053791;28;20021;-29
2023/06/06 06:59:59;;;;;;;5.60;3.17;;;;;;;;;;5054143;28;20024;-31
2023/06/06 07:02:30;;;;;;;4.50;2.73;;;;;;;;;;5053787;28;20355;-29
2023/06/06 07:05:01;;;;;;;4.38;2.80;;;;;;;;;;5054149;28;20274;-36
2023/06/06 07:07:27;;;;;;;3.95;2.58;;;;;;;;;;5053813;28;20087;-30
2023/06/06 07:09:53;;;;;;;2.70;2.50;;;;;;;;;;5053728;28;20032;-31
2023/06/06 07:12:20;;;;;;;2.70;2.50;;;;;;;;;;5053818;28;20029;-27
2023/06/06 07:14:46;;;;;;;9.43;3.03;;;;;;;;;;5053590;28;20033;-32
2023/06/06 07:17:15;;;;;;;4.10;2.65;;;;;;;;;;5053647;28;20403;-28
2023/06/06 07:19:42;;;;;;;7.05;2.65;;;;;;;;;;5053867;28;20083;-29
2023/06/06 07:22:10;;;;;;;3.53;2.35;;;;;;;;;;5053717;28;20032;-31
2023/06/06 07:24:36;;;;;;;7.60;3.20;;;;;;;;;;5054082;28;20090;-27
2023/06/06 07:27:03;;;;;;;4.95;2.92;;;;;;;;;;5053658;28;20116;-30
2023/06/06 07:29:30;;;;;;;4.57;2.60;;;;;;;;;;5055235;28;20040;-29
2023/06/06 07:31:56;;;;;;;10.77;3.17;;;;;;;;;;5057412;28;20356;-29
2023/06/06 07:34:22;;;;;;;4.32;2.92;;;;;;;;;;5057134;28;20058;-29
2023/06/06 07:36:49;;;;;;;3.28;2.90;;;;;;;;;;5057362;28;20021;-30
2023/06/06 07:39:15;;;;;;;7.18;4.38;;;;;;;;;;5057233;28;20078;-28
2023/06/06 07:41:41;;;;;;;8.73;2.95;;;;;;;;;;5056943;28;20454;-27
2023/06/06 07:44:07;;;;;;;6.00;2.50;;;;;;;;;;5056922;28;20368;-30
2023/06/06 07:46:34;;;;;;;3.25;2.95;;;;;;;;;;5057270;28;20351;-31
2023/06/06 07:49:00;;;;;;;12.80;2.88;;;;;;;;;;5056871;28;20025;-30
2023/06/06 07:51:26;;;;;;;5.72;3.03;;;;;;;;;;5057067;28;20341;-29
2023/06/06 07:53:53;;;;;;;5.75;2.90;;;;;;;;;;5056541;28;20035;-33
2023/06/06 07:56:20;;;;;;;4.78;2.72;;;;;;;;;;5056753;28;20092;-30
2023/06/06 07:58:51;;;;;;;7.38;3.00;;;;;;;;;;5056987;28;20025;-29
2023/06/06 08:01:21;;;;;;;6.97;2.63;;;;;;;;;;5056607;28;20032;-30
2023/06/06 08:03:51;;;;;;;3.35;3.05;;;;;;;;;;5056387;28;20044;-32
2023/06/06 08:06:18;;;;;;;7.07;2.92;;;;;;;;;;5056484;28;20029;-30
2023/06/06 08:08:45;;;;;;;2.85;2.65;;;;;;;;;;5056376;28;20035;-30
2023/06/06 08:11:12;;;;;;;3.55;2.92;;;;;;;;;;5056423;28;20097;-29
2023/06/06 08:13:38;;;;;;;3.22;2.72;;;;;;;;;;5055256;28;20040;-27
2023/06/06 08:16:05;;;;;;;4.47;2.53;;;;;;;;;;5056614;28;20017;-31
2023/06/06 08:18:31;;;;;;;4.07;3.65;;;;;;;;;;5056379;28;20018;-30
2023/06/06 08:20:57;;;;;;;9.00;2.80;;;;;;;;;;5056337;28;20024;-29
2023/06/06 08:23:23;;;;;;;10.65;3.33;;;;;;;;;;5056848;28;20037;-28
2023/06/06 08:25:55;;;;;;;13.43;3.90;;;;;;;;;;5056431;28;20020;-29
2023/06/06 08:28:24;;;;;;;4.93;3.13;;;;;;;;;;5056400;28;20035;-29
2023/06/06 08:30:51;;;;;;;7.63;2.83;;;;;;;;;;5056309;28;20359;-31
2023/06/06 08:33:18;;;;;;;6.43;4.68;;;;;;;;;;5056060;28;20054;-31
2023/06/06 08:35:44;;;;;;;12.27;3.47;;;;;;;;;;5055944;28;20223;-31
2023/06/06 08:38:11;;;;;;;10.98;3.03;;;;;;;;;;5056179;28;20025;-30
2023/06/06 08:40:37;;;;;;;6.57;2.65;;;;;;;;;;5055673;28;20047;-30
2023/06/06 08:43:05;;;;;;;5.63;2.78;;;;;;;;;;5056158;28;20104;-32
2023/06/06 08:45:32;;;;;;;3.42;3.13;;;;;;;;;;5056226;28;20348;-31
2023/06/06 08:48:01;;;;;;;5.47;2.67;;;;;;;;;;5055920;28;20017;-30
2023/06/06 08:50:29;;;;;;;5.20;2.92;;;;;;;;;;5056136;28;20395;-30
2023/06/06 08:52:56;;;;;;;6.05;2.75;;;;;;;;;;5055999;28;20131;-28
2023/06/06 08:55:22;;;;;;;7.13;3.88;;;;;;;;;;5055928;28;20021;-27
2023/06/06 08:57:48;;;;;;;7.80;3.10;;;;;;;;;;5055944;28;20036;-31
2023/06/06 09:00:21;;;;;;;3.30;3.08;;;;;;;;;;5054689;28;20028;-29
2023/06/06 09:02:59;;;;;;;6.95;2.88;;;;;;;;;;5055317;28;20044;-30
2023/06/06 09:05:25;;;;;;;3.80;3.20;;;;;;;;;;5056139;28;20039;-30
2023/06/06 09:07:53;;;;;;;4.30;2.90;;;;;;;;;;5055485;28;20104;-29
2023/06/06 09:10:19;;;;;;;2.90;2.65;;;;;;;;;;5056092;28;20029;-27
2023/06/06 09:12:47;;;;;;;3.90;2.83;;;;;;;;;;5055361;28;20082;-28
2023/06/06 09:15:13;;;;;;;5.93;3.05;;;;;;;;;;5055426;28;20440;-29
2023/06/06 09:17:47;;;;;;;3.50;2.97;;;;;;;;;;5055312;28;20032;-29
2023/06/06 09:20:15;;;;;;;3.58;2.88;;;;;;;;;;5055240;28;20020;-29
2023/06/06 09:22:44;;;;;;;4.00;2.80;;;;;;;;;;5055276;28;20384;-31
2023/06/06 09:25:36;;;;;;;3.13;2.83;;;;;;;;;;5055076;28;20108;-31
2023/06/06 09:28:03;;;;;;;8.13;3.20;;;;;;;;;;5053984;28;20036;-29
2023/06/06 09:30:30;;;;;;;3.58;3.28;;;;;;;;;;5055325;28;20029;-28
2023/06/06 09:33:02;;;;;;;2.72;2.53;;;;;;;;;;5055628;28;20101;-27
2023/06/06 09:35:35;;;;;;;7.90;3.78;;;;;;;;;;5055518;28;20021;-30
2023/06/06 09:38:08;;;;;;;3.85;3.55;;;;;;;;;;5055266;28;20025;-31
2023/06/06 09:40:34;;;;;;;7.15;2.63;;;;;;;;;;5055115;28;20108;-31
2023/06/06 09:43:00;;;;;;;4.45;3.85;;;;;;;;;;5053771;28;20036;-30
2023/06/06 09:45:26;;;;;;;4.72;3.00;;;;;;;;;;5055020;28;20352;-31
2023/06/06 09:47:52;;;;;;;4.00;2.80;;;;;;;;;;5055006;28;20056;-28
2023/06/06 09:50:19;;;;;;;7.47;5.07;;;;;;;;;;5055264;28;20021;-30
2023/06/06 09:52:46;;;;;;;3.63;2.90;;;;;;;;;;5054055;28;20092;-28
2023/06/06 09:55:13;;;;;;;5.53;3.42;;;;;;;;;;5054435;28;20033;-28
2023/06/06 09:57:40;;;;;;;9.73;2.92;;;;;;;;;;5053629;28;20032;-30
2023/06/06 10:00:10;;;;;;;6.28;4.43;;;;;;;;;;5054863;28;20379;-28
2023/06/06 10:02:43;;;;;;;6.68;2.90;;;;;;;;;;5053360;28;20162;-29
2023/06/06 10:05:13;;;;;;;5.00;3.17;;;;;;;;;;5054646;28;20106;-28
2023/06/06 10:07:41;;;;;;;7.97;3.47;;;;;;;;;;5053777;28;20021;-30
2023/06/06 10:10:11;;;;;;;7.60;3.38;;;;;;;;;;5055160;28;20036;-29
2023/06/06 10:12:37;;;;;;;3.45;3.10;;;;;;;;;;5054739;28;20024;-27
2023/06/06 10:15:03;;;;;;;5.45;3.08;;;;;;;;;;5054533;28;20455;-27
2023/06/06 10:17:31;;;;;;;6.80;3.25;;;;;;;;;;5054564;28;20025;-31
2023/06/06 10:20:00;;;;;;;5.40;2.78;;;;;;;;;;5054699;28;20032;-31
2023/06/06 10:22:26;;;;;;;4.75;3.25;;;;;;;;;;5054580;28;20023;-30
2023/06/06 10:24:53;;;;;;;7.28;3.17;;;;;;;;;;5054160;28;20036;-31
2023/06/06 10:27:21;;;;;;;3.15;2.90;;;;;;;;;;5054494;28;20360;-30
2023/06/06 10:29:48;;;;;;;13.57;3.35;;;;;;;;;;5055300;28;20324;-31
2023/06/06 10:32:16;;;;;;;11.18;4.43;;;;;;;;;;5054449;28;20131;-31
2023/06/06 10:34:44;;;;;;;7.40;3.65;;;;;;;;;;5054103;28;20028;-29
2023/06/06 10:37:17;;;;;;;4.88;3.42;;;;;;;;;;5054144;28;20032;-30
2023/06/06 10:39:47;;;;;;;6.10;2.92;;;;;;;;;;5054290;28;20047;-29
2023/06/06 10:42:13;;;;;;;5.65;3.10;;;;;;;;;;5054266;28;20336;-30
2023/06/06 10:44:45;;;;;;;8.68;3.53;;;;;;;;;;5053956;28;20029;-28
2023/06/06 10:47:30;;;;;;;9.45;3.42;;;;;;;;;;5054425;28;20146;-28
2023/06/06 10:50:11;;;;;;;12.55;3.05;;;;;;;;;;5054183;28;20422;-30
2023/06/06 10:52:54;;;;;;;4.07;2.58;;;;;;;;;;5053891;28;20094;-27
2023/06/06 10:55:23;;;;;;;5.95;2.85;;;;;;;;;;5053824;28;20033;-29
2023/06/06 10:58:06;;;;;;;4.88;3.08;;;;;;;;;;5053925;28;20041;-29
2023/06/06 11:00:33;;;;;;;7.32;2.35;;;;;;;;;;5053877;28;20101;-29
2023/06/06 11:03:06;;;;;;;11.25;3.10;;;;;;;;;;5054600;28;20057;-30
2023/06/06 11:05:32;;;;;;;6.97;3.00;;;;;;;;;;5057960;28;20459;-29
2023/06/06 11:08:01;;;;;;;4.30;3.15;;;;;;;;;;5057891;28;20348;-31
2023/06/06 11:10:27;;;;;;;4.57;2.97;;;;;;;;;;5057473;28;20090;-30
2023/06/06 11:12:54;;;;;;;14.20;3.17;;;;;;;;;;5057677;28;20040;-31
2023/06/06 11:15:33;;;;;;;6.22;3.58;;;;;;;;;;5057700;28;20029;-28
2023/06/06 11:18:04;;;;;;;8.48;4.05;;;;;;;;;;5057947;28;20106;-29
2023/06/06 11:20:40;;;;;;;4.57;3.15;;;;;;;;;;5057638;28;20017;-30
2023/06/06 11:23:06;;;;;;;6.68;3.08;;;;;;;;;;5057421;28;20020;-29
2023/06/06 11:25:35;;;;;;;5.38;3.30;;;;;;;;;;5057318;28;20083;-32
2023/06/06 11:28:01;;;;;;;10.70;4.47;;;;;;;;;;5057524;28;20024;-31
2023/06/06 11:30:39;;;;;;;9.82;3.10;;;;;;;;;;5057370;28;20067;-27
2023/06/06 11:33:11;;;;;;;3.65;2.47;;;;;;;;;;5057089;28;20024;-29
2023/06/06 11:35:41;;;;;;;4.40;3.05;;;;;;;;;;5057385;28;20372;-30
2023/06/06 11:38:07;;;;;;;11.18;3.65;;;;;;;;;;5057057;28;20107;-31
2023/06/06 11:40:34;;;;;;;11.35;3.45;;;;;;;;;;5056117;28;20041;-27
2023/06/06 11:43:00;;;;;;;12.93;4.15;;;;;;;;;;5056924;28;20025;-31
2023/06/06 11:45:26;;;;;;;7.15;3.53;;;;;;;;;;5057034;28;20036;-28
2023/06/06 11:47:53;;;;;;;5.25;2.88;;;;;;;;;;5055944;28;20569;-29
2023/06/06 11:50:28;;;;;;;6.65;3.00;;;;;;;;;;5056881;28;20166;-32
2023/06/06 11:52:55;;;;;;;5.57;2.50;;;;;;;;;;5057098;28;20413;-29
2023/06/06 11:55:34;;;;;;;11.73;3.83;;;;;;;;;;5055812;28;20333;-29
2023/06/06 11:58:03;;;;;;;7.88;3.65;;;;;;;;;;5056813;28;20024;-31
2023/06/06 12:00:29;;;;;;;6.25;3.10;;;;;;;;;;5057026;28;20096;-31
2023/06/06 12:02:59;;;;;;;8.20;3.33;;;;;;;;;;5055326;28;20131;-30
2023/06/06 12:05:25;;;;;;;7.15;3.08;;;;;;;;;;5056992;28;20090;-30
2023/06/06 12:07:54;;;;;;;6.93;3.90;;;;;;;;;;5056882;28;20025;-32
2023/06/06 12:10:24;;;;;;;14.50;3.42;;;;;;;;;;5056842;28;20109;-31
2023/06/06 12:12:51;;;;;;;11.15;3.30;;;;;;;;;;5056711;28;20032;-28
2023/06/06 12:15:17;;;;;;;14.77;3.92;;;;;;;;;;5055907;28;20025;-29
2023/06/06 12:17:43;;;;;;;4.90;3.65;;;;;;;;;;5056347;28;20028;-31
2023/06/06 12:20:10;;;;;;;6.32;3.35;;;;;;;;;;5056416;28;20025;-31
2023/06/06 12:22:36;;;;;;;6.85;3.58;;;;;;;;;;5056157;28;20150;-30
2023/06/06 12:25:04;;;;;;;7.60;4.07;;;;;;;;;;5056241;28;20036;-31
2023/06/06 12:27:33;;;;;;;8.13;3.13;;;;;;;;;;5056225;28;20029;-30
2023/06/06 12:30:00;;;;;;;4.00;3.60;;;;;;;;;;5056442;28;20025;-26
2023/06/06 12:32:29;;;;;;;6.32;3.15;;;;;;;;;;5056345;28;20056;-29
2023/06/06 12:35:01;;;;;;;5.07;3.60;;;;;;;;;;5055980;28;20471;-30
2023/06/06 12:37:37;;;;;;;4.00;3.45;;;;;;;;;;5056110;28;20032;-30
2023/06/06 12:40:09;;;;;;;10.80;3.38;;;;;;;;;;5055983;28;20036;-31
2023/06/06 12:42:35;;;;;;;7.03;2.90;;;;;;;;;;5056232;28;20329;-30
2023/06/06 12:45:02;;;;;;;10.27;3.97;;;;;;;;;;5055853;28;20025;-28
2023/06/06 12:47:28;;;;;;;8.65;3.08;;;;;;;;;;5055757;28;20085;-29
2023/06/06 12:49:54;;;;;;;7.50;3.90;;;;;;;;;;5056040;28;20337;-31
2023/06/06 12:52:20;;;;;;;8.02;3.55;;;;;;;;;;5056182;28;20036;-27
2023/06/06 12:54:47;;;;;;;6.25;3.65;;;;;;;;;;5055619;28;20036;-27
2023/06/06 12:57:13;;;;;;;5.28;3.70;;;;;;;;;;5056148;28;20433;-29
2023/06/06 12:59:41;;;;;;;10.15;4.00;;;;;;;;;;5055613;28;20025;-26
2023/06/06 13:02:08;;;;;;;9.93;3.30;;;;;;;;;;5055247;28;20513;-30
2023/06/06 13:04:34;;;;;;;13.05;3.75;;;;;;;;;;5055752;28;20337;-29
2023/06/06 13:07:01;;;;;;;11.68;3.75;;;;;;;;;;5055404;28;20035;-31
2023/06/06 13:09:27;;;;;;;10.05;3.00;;;;;;;;;;5055218;28;20463;-29
2023/06/06 13:11:54;;;;;;;9.68;3.20;;;;;;;;;;5055358;28;20033;-31
2023/06/06 13:14:21;;;;;;;5.30;2.95;;;;;;;;;;5054148;28;20082;-28
2023/06/06 13:16:47;;;;;;;4.30;3.58;;;;;;;;;;5055135;28;20035;-30
2023/06/06 13:19:13;;;;;;;5.13;3.85;;;;;;;;;;5054209;28;20021;-29
2023/06/06 13:21:39;;;;;;;13.57;2.90;;;;;;;;;;5055249;28;20413;-27
2023/06/06 13:24:07;;;;;;;3.83;2.95;;;;;;;;;;5055370;28;20107;-29
2023/06/06 13:26:33;;;;;;;8.23;3.13;;;;;;;;;;5055019;28;20101;-28
2023/06/06 13:28:59;;;;;;;7.03;3.88;;;;;;;;;;5055109;28;20330;-30
2023/06/06 13:31:25;;;;;;;8.75;3.13;;;;;;;;;;5055319;28;20428;-31
2023/06/06 13:33:51;;;;;;;6.88;3.30;;;;;;;;;;5054895;28;20029;-31
2023/06/06 13:36:18;;;;;;;14.93;3.88;;;;;;;;;;5055424;28;20447;-29
2023/06/06 13:38:47;;;;;;;8.68;3.30;;;;;;;;;;5054860;28;20025;-32
2023/06/06 13:41:13;;;;;;;7.00;3.42;;;;;;;;;;5055381;28;20025;-31
2023/06/06 13:43:40;;;;;;;10.45;3.85;;;;;;;;;;5054785;28;20025;-29
2023/06/06 13:46:06;;;;;;;11.38;5.10;;;;;;;;;;5055279;28;20025;-30
2023/06/06 13:48:33;;;;;;;9.13;3.45;;;;;;;;;;5055133;28;20047;-28
2023/06/06 13:50:59;;;;;;;5.57;3.70;;;;;;;;;;5054955;28;20029;-30
2023/06/06 13:53:25;;;;;;;7.63;3.83;;;;;;;;;;5054652;28;20114;-30
2023/06/06 13:55:53;;;;;;;10.82;3.38;;;;;;;;;;5055138;28;20394;-30
2023/06/06 13:58:23;;;;;;;11.30;3.90;;;;;;;;;;5054675;28;20137;-27
2023/06/06 14:00:53;;;;;;;12.75;4.55;;;;;;;;;;5054614;28;20404;-31
2023/06/06 14:03:20;;;;;;;4.95;2.90;;;;;;;;;;5054495;28;20071;-30
2023/06/06 14:05:46;;;;;;;13.38;5.15;;;;;;;;;;5054823;28;20539;-31
2023/06/06 14:08:12;;;;;;;12.40;3.38;;;;;;;;;;5054463;28;20053;-31
2023/06/06 14:10:38;;;;;;;8.50;3.70;;;;;;;;;;5053545;28;20099;-31
2023/06/06 14:13:04;;;;;;;10.68;4.00;;;;;;;;;;5054520;28;20405;-30
2023/06/06 14:15:30;;;;;;;6.55;3.70;;;;;;;;;;5054894;28;20317;-29
2023/06/06 14:17:57;;;;;;;12.13;3.97;;;;;;;;;;5054355;28;20025;-28
2023/06/06 14:20:24;;;;;;;10.88;3.85;;;;;;;;;;5054353;28;20025;-32
2023/06/06 14:22:51;;;;;;;6.47;3.53;;;;;;;;;;5054273;28;20029;-30
2023/06/06 14:25:18;;;;;;;10.07;3.95;;;;;;;;;;5053572;28;20064;-29
2023/06/06 14:27:44;;;;;;;10.35;3.55;;;;;;;;;;5054386;28;20455;-30
2023/06/06 14:30:11;;;;;;;9.10;3.55;;;;;;;;;;5054742;28;20082;-32
2023/06/06 14:32:38;;;;;;;11.55;4.32;;;;;;;;;;5054202;28;20083;-29
2023/06/06 14:35:06;;;;;;;7.22;4.00;;;;;;;;;;5054224;28;20075;-30
2023/06/06 14:37:32;;;;;;;16.63;3.95;;;;;;;;;;5054751;28;20043;-28
2023/06/06 14:39:59;;;;;;;6.18;3.53;;;;;;;;;;5058572;28;20091;-30
2023/06/06 14:42:25;;;;;;;8.45;4.05;;;;;;;;;;5058492;28;20020;-29